Time;durP1;ratioP1;P1;durP2;ratioP2;P2;SDS_P1;SDS_P2;PMS_P1;PMS_P2;Temp;Humidity;BMP_temperature;BMP_pressure;BME280_temperature;BME280_humidity;BME280_pressure;Samples;Min_cycle;Max_cycle;Signal;HPM_P1;HPM_P2
2023/08/17 00:02:14;;;;;;;17.13;15.43;;;;;19.20;97123.00;;;;5026819;28;20217;-69
2023/08/17 00:05:03;;;;;;;17.30;15.53;;;;;19.40;97123.00;;;;5023505;28;20850;-69
2023/08/17 00:07:53;;;;;;;18.47;14.30;;;;;19.00;97131.00;;;;5021574;28;20212;-69
2023/08/17 00:10:42;;;;;;;16.03;14.33;;;;;19.30;97131.00;;;;5026219;28;20822;-72
2023/08/17 00:13:31;;;;;;;15.87;14.37;;;;;19.30;97126.00;;;;5022579;28;20247;-69
2023/08/17 00:16:20;;;;;;;17.80;15.67;;;;;19.20;97129.00;;;;5024647;28;20229;-69
2023/08/17 00:19:09;;;;;;;15.83;14.33;;;;;19.40;97139.00;;;;5029274;28;20626;-70
2023/08/17 00:21:58;;;;;;;17.50;15.07;;;;;19.60;97134.00;;;;5026336;28;20232;-69
2023/08/17 00:24:49;;;;;;;17.93;15.07;;;;;19.60;97121.00;;;;5025750;28;20234;-70
2023/08/17 00:27:38;;;;;;;16.40;14.70;;;;;19.50;97120.00;;;;5026932;28;20224;-70
2023/08/17 00:30:27;;;;;;;17.23;14.10;;;;;19.80;97117.00;;;;5028240;28;20209;-71
2023/08/17 00:33:16;;;;;;;14.60;13.20;;;;;19.70;97121.00;;;;5031146;28;20209;-69
2023/08/17 00:36:05;;;;;;;16.30;13.43;;;;;19.70;97125.00;;;;5026612;28;20232;-70
2023/08/17 00:38:54;;;;;;;15.63;14.03;;;;;19.60;97120.00;;;;5030980;28;20197;-70
2023/08/17 00:41:44;;;;;;;17.60;14.03;;;;;19.80;97115.00;;;;5032667;28;20240;-70
2023/08/17 00:44:33;;;;;;;16.10;14.00;;;;;19.50;97117.00;;;;5028166;28;20246;-70
2023/08/17 00:47:22;;;;;;;15.07;13.53;;;;;19.20;97116.00;;;;5031682;28;20193;-69
2023/08/17 00:50:12;;;;;;;15.37;13.73;;;;;19.10;97118.00;;;;5027356;28;20232;-69
2023/08/17 00:53:01;;;;;;;17.17;13.40;;;;;19.10;97104.00;;;;5029896;28;20211;-69
2023/08/17 00:55:51;;;;;;;17.67;14.00;;;;;19.30;97114.00;;;;5019944;28;20229;-69
2023/08/17 00:58:41;;;;;;;18.27;14.83;;;;;19.50;97120.00;;;;5029508;28;20197;-70
2023/08/17 01:01:30;;;;;;;16.33;14.63;;;;;19.40;97110.00;;;;5026938;28;20211;-70
2023/08/17 01:04:19;;;;;;;19.80;14.97;;;;;19.30;97098.00;;;;5019897;28;20249;-70
2023/08/17 01:07:08;;;;;;;18.53;15.70;;;;;19.60;97094.00;;;;5019116;28;20645;-69
2023/08/17 01:09:57;;;;;;;16.37;14.50;;;;;19.70;97095.00;;;;5026953;28;20550;-70
2023/08/17 01:12:53;;;;;;;15.53;12.87;;;;;19.30;97095.00;;;;5021711;28;20235;-69
2023/08/17 01:15:48;;;;;;;16.13;13.57;;;;;19.40;97089.00;;;;5021944;28;20229;-69
2023/08/17 01:18:39;;;;;;;19.50;13.27;;;;;19.30;97085.00;;;;5027102;28;20197;-69
2023/08/17 01:21:36;;;;;;;16.13;14.47;;;;;19.10;97080.00;;;;5025807;28;20206;-69
2023/08/17 01:24:26;;;;;;;19.80;15.97;;;;;19.30;97088.00;;;;5026541;28;20626;-69
2023/08/17 01:27:15;;;;;;;16.83;15.10;;;;;19.70;97084.00;;;;5029098;28;20730;-70
2023/08/17 01:30:05;;;;;;;15.53;13.93;;;;;19.60;97092.00;;;;5023951;28;20202;-70
2023/08/17 01:32:57;;;;;;;14.27;12.90;;;;;18.90;97085.00;;;;5026711;28;20201;-70
2023/08/17 01:35:49;;;;;;;15.30;13.80;;;;;18.20;97081.00;;;;5023734;28;20232;-69
2023/08/17 01:38:39;;;;;;;14.90;13.17;;;;;18.50;97084.00;;;;5024510;28;20233;-70
2023/08/17 01:41:30;;;;;;;17.03;14.17;;;;;18.30;97084.00;;;;5024329;28;20215;-69
2023/08/17 01:44:19;;;;;;;17.03;15.23;;;;;18.20;97085.00;;;;5030735;28;20205;-68
2023/08/17 01:47:09;;;;;;;19.17;16.13;;;;;18.40;97089.00;;;;5028121;28;20202;-69
2023/08/17 01:49:59;;;;;;;17.73;15.83;;;;;18.70;97095.00;;;;5025042;28;20209;-70
2023/08/17 01:52:50;;;;;;;17.77;15.87;;;;;18.60;97088.00;;;;5018462;28;20197;-70
2023/08/17 01:55:39;;;;;;;17.33;15.40;;;;;18.40;97074.00;;;;5025122;28;20239;-69
2023/08/17 01:58:29;;;;;;;16.10;14.43;;;;;18.70;97090.00;;;;5028289;28;20583;-71
2023/08/17 02:01:18;;;;;;;16.93;15.13;;;;;18.50;97087.00;;;;5021536;28;20201;-69
2023/08/17 02:04:08;;;;;;;23.20;15.50;;;;;18.70;97094.00;;;;5027788;28;20225;-69
2023/08/17 02:06:57;;;;;;;17.33;14.07;;;;;18.90;97092.00;;;;5023929;28;20202;-69
2023/08/17 02:09:46;;;;;;;18.17;15.80;;;;;18.90;97095.00;;;;5026034;28;20209;-69
2023/08/17 02:12:35;;;;;;;17.50;15.63;;;;;19.00;97098.00;;;;5026500;28;20197;-69
2023/08/17 02:15:25;;;;;;;18.10;16.20;;;;;19.00;97102.00;;;;5025553;28;20230;-69
2023/08/17 02:18:14;;;;;;;17.43;15.27;;;;;19.10;97097.00;;;;5023272;28;20212;-69
2023/08/17 02:21:03;;;;;;;16.67;14.77;;;;;19.10;97108.00;;;;5023192;28;20212;-70
2023/08/17 02:23:52;;;;;;;18.70;14.13;;;;;19.20;97096.00;;;;5024385;28;20228;-70
2023/08/17 02:26:41;;;;;;;18.67;15.93;;;;;19.30;97103.00;;;;5024662;28;20208;-68
2023/08/17 02:29:30;;;;;;;18.53;14.47;;;;;19.10;97107.00;;;;5022389;28;20225;-71
2023/08/17 02:32:20;;;;;;;16.37;14.67;;;;;18.70;97114.00;;;;5025189;28;20239;-68
2023/08/17 02:35:10;;;;;;;18.67;15.17;;;;;18.30;97103.00;;;;5028416;23;20240;-86
2023/08/17 02:38:00;;;;;;;18.87;13.93;;;;;18.30;97097.00;;;;5009449;28;20230;-89
2023/08/17 02:40:50;;;;;;;18.63;14.77;;;;;18.20;97105.00;;;;5001548;28;20229;-87
2023/08/17 02:43:39;;;;;;;21.60;16.03;;;;;18.50;97105.00;;;;5010446;28;20690;-87
2023/08/17 02:46:28;;;;;;;19.70;16.87;;;;;18.50;97106.00;;;;5010284;28;20244;-87
2023/08/17 02:49:20;;;;;;;20.00;16.10;;;;;18.60;97102.00;;;;5041145;23;20224;-65
2023/08/17 02:52:09;;;;;;;16.27;14.10;;;;;18.50;97104.00;;;;5047266;28;20204;-65
2023/08/17 02:54:58;;;;;;;18.37;14.80;;;;;18.60;97111.00;;;;5047159;28;20230;-65
2023/08/17 02:57:47;;;;;;;18.80;15.83;;;;;18.90;97110.00;;;;5040041;28;20208;-65
2023/08/17 03:00:36;;;;;;;17.47;15.63;;;;;18.90;97105.00;;;;5038036;28;20223;-65
2023/08/17 03:03:25;;;;;;;17.80;15.70;;;;;18.90;97100.00;;;;5046988;28;20221;-65
2023/08/17 03:06:15;;;;;;;18.40;15.37;;;;;18.90;97105.00;;;;5048259;28;20235;-65
2023/08/17 03:09:05;;;;;;;18.47;15.57;;;;;18.80;97097.00;;;;5042775;28;20212;-65
2023/08/17 03:11:54;;;;;;;18.27;16.43;;;;;19.00;97103.00;;;;5047499;28;20200;-65
2023/08/17 03:14:43;;;;;;;18.73;16.93;;;;;18.90;97107.00;;;;5043447;28;20193;-65
2023/08/17 03:17:32;;;;;;;20.53;15.40;;;;;18.40;97122.00;;;;5048905;28;20215;-66
2023/08/17 03:20:21;;;;;;;17.60;15.33;;;;;18.70;97120.00;;;;5043770;28;20215;-65
2023/08/17 03:23:11;;;;;;;19.20;15.93;;;;;18.50;97104.00;;;;5038030;28;20641;-65
2023/08/17 03:26:00;;;;;;;15.97;13.83;;;;;18.50;97099.00;;;;5047866;28;20224;-66
2023/08/17 03:28:49;;;;;;;24.27;15.73;;;;;18.50;97101.00;;;;5046697;28;20231;-66
2023/08/17 03:31:38;;;;;;;19.07;14.80;;;;;18.60;97106.00;;;;5048136;28;20593;-65
2023/08/17 03:34:27;;;;;;;19.40;16.40;;;;;18.60;97114.00;;;;5042536;28;20195;-65
2023/08/17 03:37:16;;;;;;;20.10;16.00;;;;;18.80;97117.00;;;;5039589;28;20587;-65
2023/08/17 03:40:08;;;;;;;22.47;15.87;;;;;18.40;97102.00;;;;5042698;28;20205;-66
2023/08/17 03:42:57;;;;;;;17.57;15.60;;;;;18.40;97094.00;;;;5041700;28;20683;-64
2023/08/17 03:45:46;;;;;;;17.63;15.77;;;;;18.30;97097.00;;;;5039976;28;20239;-66
2023/08/17 03:48:35;;;;;;;17.83;15.93;;;;;18.80;97109.00;;;;5037968;28;20197;-64
2023/08/17 03:51:24;;;;;;;22.30;16.30;;;;;18.80;97096.00;;;;5048846;28;20216;-65
2023/08/17 03:54:14;;;;;;;17.70;15.80;;;;;18.90;97106.00;;;;5043256;28;20224;-65
2023/08/17 03:57:04;;;;;;;18.60;15.27;;;;;18.90;97112.00;;;;5049170;28;20243;-65
2023/08/17 03:59:53;;;;;;;19.30;15.93;;;;;18.50;97104.00;;;;5051803;28;20207;-65
2023/08/17 04:02:42;;;;;;;18.83;16.73;;;;;18.60;97109.00;;;;5048056;28;20215;-64
2023/08/17 04:05:33;;;;;;;17.20;15.47;;;;;18.60;97110.00;;;;5047643;28;20229;-65
2023/08/17 04:08:22;;;;;;;19.87;16.20;;;;;18.40;97110.00;;;;5052361;28;20204;-66
2023/08/17 04:11:11;;;;;;;18.53;15.73;;;;;18.60;97113.00;;;;5048589;28;20204;-65
2023/08/17 04:14:01;;;;;;;19.57;16.17;;;;;18.70;97112.00;;;;5046740;28;20197;-65
2023/08/17 04:16:50;;;;;;;16.73;15.00;;;;;18.60;97110.00;;;;5046457;28;20710;-65
2023/08/17 04:19:39;;;;;;;21.90;16.33;;;;;18.60;97097.00;;;;5049135;28;20208;-65
2023/08/17 04:22:28;;;;;;;25.30;15.80;;;;;18.50;97104.00;;;;5053225;28;20200;-65
2023/08/17 04:25:17;;;;;;;19.70;16.60;;;;;18.40;97096.00;;;;5045543;28;20228;-65
2023/08/17 04:28:06;;;;;;;17.67;15.37;;;;;18.50;97098.00;;;;5046925;28;20197;-65
2023/08/17 04:30:56;;;;;;;20.00;17.07;;;;;18.60;97100.00;;;;5040695;28;20197;-65
2023/08/17 04:33:45;;;;;;;18.80;16.00;;;;;18.40;97102.00;;;;5049561;28;20208;-66
2023/08/17 04:36:34;;;;;;;21.90;19.50;;;;;18.40;97103.00;;;;5044924;28;20600;-66
2023/08/17 04:39:23;;;;;;;18.80;16.90;;;;;18.80;97104.00;;;;5049599;28;20197;-66
2023/08/17 04:42:12;;;;;;;19.47;16.67;;;;;18.70;97097.00;;;;5043697;28;20210;-65
2023/08/17 04:45:01;;;;;;;17.47;15.53;;;;;18.60;97096.00;;;;5039684;28;20229;-65
2023/08/17 04:47:52;;;;;;;20.03;16.53;;;;;18.80;97098.00;;;;5049126;28;20197;-65
2023/08/17 04:50:41;;;;;;;18.47;16.60;;;;;18.90;97102.00;;;;5046617;28;20208;-65
2023/08/17 04:53:30;;;;;;;23.70;16.67;;;;;18.90;97104.00;;;;5047988;28;20207;-65
2023/08/17 04:56:19;;;;;;;22.73;15.80;;;;;18.60;97100.00;;;;5045092;28;20225;-65
2023/08/17 04:59:08;;;;;;;19.07;16.97;;;;;18.40;97099.00;;;;5040299;28;20201;-65
2023/08/17 05:01:57;;;;;;;19.13;15.93;;;;;18.70;97104.00;;;;5039770;28;20193;-65
2023/08/17 05:04:48;;;;;;;18.27;16.27;;;;;19.10;97105.00;;;;5046779;28;20232;-65
2023/08/17 05:07:37;;;;;;;19.63;16.87;;;;;18.90;97110.00;;;;5048713;28;20204;-65
2023/08/17 05:10:26;;;;;;;23.50;17.27;;;;;19.30;97106.00;;;;5043830;28;20205;-65
2023/08/17 05:13:15;;;;;;;20.30;17.60;;;;;19.60;97101.00;;;;5037598;28;20586;-65
2023/08/17 05:16:05;;;;;;;18.90;16.63;;;;;19.50;97114.00;;;;5041438;28;20216;-65
2023/08/17 05:18:54;;;;;;;18.63;16.10;;;;;19.50;97114.00;;;;5044560;28;20208;-65
2023/08/17 05:21:44;;;;;;;17.77;15.73;;;;;19.60;97112.00;;;;5043240;28;20204;-65
2023/08/17 05:24:33;;;;;;;18.10;14.13;;;;;19.30;97106.00;;;;5044777;28;20220;-67
2023/08/17 05:27:23;;;;;;;15.60;14.10;;;;;19.30;97113.00;;;;5046051;28;20277;-65
2023/08/17 05:30:12;;;;;;;17.20;15.40;;;;;19.40;97113.00;;;;5046306;28;20204;-66
2023/08/17 05:33:01;;;;;;;15.97;14.00;;;;;19.20;97112.00;;;;5038458;28;20211;-66
2023/08/17 05:35:55;;;;;;;17.10;15.30;;;;;19.40;97111.00;;;;5044641;28;20218;-65
2023/08/17 05:38:45;;;;;;;19.57;15.97;;;;;19.70;97117.00;;;;5044537;28;20676;-66
2023/08/17 05:41:34;;;;;;;18.40;16.40;;;;;19.90;97110.00;;;;5044383;28;20197;-65
2023/08/17 05:44:23;;;;;;;17.30;15.55;;;;;19.90;97115.00;;;;5046501;28;20225;-66
2023/08/17 05:47:15;;;;;;;19.83;17.13;;;;;20.00;97114.00;;;;5044110;28;20425;-65
2023/08/17 05:50:04;;;;;;;16.27;14.63;;;;;20.10;97111.00;;;;5041471;28;20217;-65
2023/08/17 05:52:53;;;;;;;19.63;15.90;;;;;20.30;97115.00;;;;5042800;28;20603;-65
2023/08/17 05:55:44;;;;;;;17.80;14.03;;;;;20.20;97110.00;;;;5044304;28;20249;-66
2023/08/17 05:58:32;;;;;;;19.00;17.00;;;;;20.30;97113.00;;;;5044836;28;20294;-65
2023/08/17 06:01:21;;;;;;;18.37;16.37;;;;;20.40;97109.00;;;;5047531;28;20200;-66
2023/08/17 06:04:10;;;;;;;18.03;15.87;;;;;20.80;97118.00;;;;5044183;28;20224;-65
2023/08/17 06:06:59;;;;;;;20.10;14.40;;;;;20.80;97127.00;;;;5045975;28;20238;-65
2023/08/17 06:09:48;;;;;;;18.30;16.10;;;;;21.20;97119.00;;;;5050161;28;20201;-66
2023/08/17 06:12:39;;;;;;;20.00;16.23;;;;;21.50;97118.00;;;;5042238;28;20201;-65
2023/08/17 06:15:28;;;;;;;15.87;12.80;;;;;21.90;97111.00;;;;5044910;28;20562;-65
2023/08/17 06:18:17;;;;;;;20.33;14.93;;;;;22.20;97108.00;;;;5047442;28;20209;-65
2023/08/17 06:21:06;;;;;;;15.70;13.03;;;;;22.10;97104.00;;;;5048664;28;20209;-64
2023/08/17 06:23:55;;;;;;;16.57;14.87;;;;;22.10;97105.00;;;;5051984;28;20200;-64
2023/08/17 06:26:46;;;;;;;16.20;13.43;;;;;22.20;97113.00;;;;5042753;28;20289;-65
2023/08/17 06:29:36;;;;;;;19.07;13.80;;;;;22.70;97104.00;;;;5042460;28;20200;-65
2023/08/17 06:32:25;;;;;;;18.90;13.87;;;;;23.10;97111.00;;;;5049865;28;20205;-65
2023/08/17 06:35:14;;;;;;;14.83;12.77;;;;;23.20;97109.00;;;;5046329;28;20197;-65
2023/08/17 06:38:04;;;;;;;16.40;12.57;;;;;23.20;97102.00;;;;5044697;28;20322;-65
2023/08/17 06:40:53;;;;;;;12.10;10.87;;;;;23.10;97097.00;;;;5039010;28;20211;-65
2023/08/17 06:43:42;;;;;;;14.53;12.33;;;;;23.00;97102.00;;;;5043852;28;20208;-65
2023/08/17 06:46:32;;;;;;;21.30;13.83;;;;;23.50;97094.00;;;;5031600;28;20232;-65
2023/08/17 06:49:21;;;;;;;14.63;12.37;;;;;23.40;97100.00;;;;5043457;28;20208;-65
2023/08/17 06:52:10;;;;;;;13.33;11.23;;;;;23.50;97097.00;;;;5035237;28;20580;-65
2023/08/17 06:54:59;;;;;;;15.33;12.70;;;;;23.50;97098.00;;;;5035733;28;20657;-66
2023/08/17 06:57:49;;;;;;;16.33;12.30;;;;;23.70;97110.00;;;;5035437;28;20205;-65
2023/08/17 07:00:40;;;;;;;15.53;12.53;;;;;23.90;97098.00;;;;5035453;28;20585;-65
2023/08/17 07:03:30;;;;;;;14.03;11.90;;;;;24.30;97096.00;;;;5037992;28;20197;-65
2023/08/17 07:06:20;;;;;;;17.33;11.40;;;;;24.80;97107.00;;;;5048260;28;20232;-65
2023/08/17 07:09:12;;;;;;;13.63;11.03;;;;;24.70;97110.00;;;;5039944;28;20570;-66
2023/08/17 07:12:01;;;;;;;12.77;11.23;;;;;25.00;97115.00;;;;5044101;28;20711;-65
2023/08/17 07:14:50;;;;;;;13.90;10.47;;;;;25.00;97110.00;;;;5039259;28;20208;-65
2023/08/17 07:17:39;;;;;;;12.27;10.90;;;;;25.20;97110.00;;;;5032692;28;20208;-65
2023/08/17 07:20:29;;;;;;;11.87;10.60;;;;;25.50;97112.00;;;;5046784;28;20207;-65
2023/08/17 07:23:18;;;;;;;11.97;9.27;;;;;25.40;97117.00;;;;5049837;28;20197;-65
2023/08/17 07:26:07;;;;;;;10.17;9.17;;;;;25.30;97119.00;;;;5046580;28;20719;-65
2023/08/17 07:28:57;;;;;;;12.33;10.17;;;;;25.50;97118.00;;;;5034034;28;20197;-65
2023/08/17 07:31:46;;;;;;;11.73;9.97;;;;;25.50;97124.00;;;;5049684;28;20208;-64
2023/08/17 07:34:36;;;;;;;11.30;9.57;;;;;25.60;97121.00;;;;5043941;28;20207;-65
2023/08/17 07:37:32;;;;;;;13.37;10.50;;;;;25.40;97115.00;;;;5053847;28;20207;-65
2023/08/17 07:40:21;;;;;;;11.57;10.37;;;;;25.40;97112.00;;;;5047526;28;20215;-66
2023/08/17 07:43:10;;;;;;;11.57;9.83;;;;;25.70;97129.00;;;;5039340;28;20201;-65
2023/08/17 07:45:59;;;;;;;10.83;9.40;;;;;26.10;97125.00;;;;5044515;28;20220;-65
2023/08/17 07:48:48;;;;;;;10.43;8.87;;;;;26.20;97119.00;;;;5043541;28;20209;-65
2023/08/17 07:51:37;;;;;;;10.93;9.10;;;;;26.40;97122.00;;;;5043985;28;20196;-65
2023/08/17 07:54:28;;;;;;;10.80;8.93;;;;;26.60;97124.00;;;;5049548;28;20216;-65
2023/08/17 07:57:17;;;;;;;9.50;8.57;;;;;26.70;97122.00;;;;5043170;28;20232;-65
2023/08/17 08:00:07;;;;;;;10.00;9.00;;;;;26.70;97127.00;;;;5043023;28;20218;-65
2023/08/17 08:02:56;;;;;;;10.27;9.07;;;;;26.50;97109.00;;;;5045425;28;20201;-65
2023/08/17 08:05:45;;;;;;;9.03;8.07;;;;;26.70;97102.00;;;;5044876;28;20255;-66
2023/08/17 08:08:34;;;;;;;9.40;8.23;;;;;27.00;97115.00;;;;5042535;28;20193;-65
2023/08/17 08:11:25;;;;;;;13.67;9.87;;;;;27.20;97110.00;;;;5048648;28;20204;-65
2023/08/17 08:14:14;;;;;;;10.53;9.43;;;;;27.10;97110.00;;;;5047287;28;20198;-65
2023/08/17 08:17:03;;;;;;;9.17;8.37;;;;;27.50;97112.00;;;;5043045;28;20218;-65
2023/08/17 08:19:52;;;;;;;9.43;8.43;;;;;27.80;97111.00;;;;5046399;28;20209;-65
2023/08/17 08:22:41;;;;;;;9.60;7.87;;;;;27.90;97110.00;;;;5040848;28;20230;-64
2023/08/17 08:25:30;;;;;;;10.67;9.33;;;;;28.10;97109.00;;;;5054504;28;20283;-65
2023/08/17 08:28:20;;;;;;;9.70;8.70;;;;;28.10;97102.00;;;;5050820;28;20202;-64
2023/08/17 08:31:10;;;;;;;9.83;8.73;;;;;28.30;97108.00;;;;5043494;28;20194;-65
2023/08/17 08:33:59;;;;;;;8.77;7.83;;;;;28.70;97111.00;;;;5040363;28;20203;-66
2023/08/17 08:36:48;;;;;;;9.50;8.17;;;;;28.80;97107.00;;;;5042480;22;20246;-84
2023/08/17 08:39:50;;;;;;;9.50;8.43;;;;;28.90;97105.00;;;;5032925;28;20688;-84
2023/08/17 08:42:39;;;;;;;10.37;8.97;;;;;29.00;97101.00;;;;5031921;28;20209;-84
2023/08/17 08:45:31;;;;;;;9.20;8.20;;;;;29.20;97097.00;;;;5020256;28;20204;-84
2023/08/17 08:48:20;;;;;;;9.10;8.17;;;;;29.10;97099.00;;;;5011287;28;20672;-84
2023/08/17 08:51:10;;;;;;;9.60;8.70;;;;;29.20;97093.00;;;;5009525;28;20198;-84
2023/08/17 08:54:04;;;;;;;8.33;7.63;;;;;29.40;97097.00;;;;5009514;28;20607;-84
2023/08/17 08:56:59;;;;;;;8.50;7.43;;;;;29.30;97103.00;;;;5011779;28;20213;-84
2023/08/17 08:59:48;;;;;;;8.83;8.07;;;;;29.40;97107.00;;;;5014673;28;20213;-84
2023/08/17 09:02:39;;;;;;;8.87;7.73;;;;;28.60;97099.00;;;;5009103;28;20626;-84
2023/08/17 09:05:28;;;;;;;8.23;7.43;;;;;28.10;97093.00;;;;5015650;28;20612;-84
2023/08/17 09:08:22;;;;;;;10.27;7.57;;;;;27.70;97095.00;;;;5009909;28;20201;-84
2023/08/17 09:11:11;;;;;;;8.60;7.80;;;;;28.40;97086.00;;;;5010297;28;20211;-85
2023/08/17 09:14:00;;;;;;;8.43;7.63;;;;;28.30;97080.00;;;;5008244;28;20227;-84
2023/08/17 09:16:49;;;;;;;8.37;7.57;;;;;28.90;97089.00;;;;5011705;28;20208;-84
2023/08/17 09:19:39;;;;;;;9.13;8.23;;;;;29.40;97088.00;;;;5012334;28;20754;-85
2023/08/17 09:22:40;;;;;;;8.57;7.77;;;;;29.40;97080.00;;;;5017759;28;20264;-84
2023/08/17 09:25:29;;;;;;;10.77;8.60;;;;;29.80;97094.00;;;;5016273;28;20602;-85
2023/08/17 09:28:20;;;;;;;10.87;8.97;;;;;29.30;97089.00;;;;5009951;28;20203;-84
2023/08/17 09:31:09;;;;;;;9.30;8.50;;;;;29.90;97076.00;;;;5008859;28;20571;-85
2023/08/17 09:33:58;;;;;;;10.57;8.43;;;;;29.60;97073.00;;;;5008632;28;20219;-85
2023/08/17 09:36:49;;;;;;;10.20;7.53;;;;;30.20;97076.00;;;;5013162;28;20248;-85
2023/08/17 09:39:38;;;;;;;12.27;9.30;;;;;29.60;97067.00;;;;5008756;28;20301;-84
2023/08/17 09:42:28;;;;;;;9.90;8.00;;;;;30.30;97066.00;;;;5015470;28;20210;-85
2023/08/17 09:45:19;;;;;;;10.23;8.07;;;;;30.80;97067.00;;;;5008844;28;20198;-84
2023/08/17 09:48:09;;;;;;;9.23;8.33;;;;;30.90;97063.00;;;;5008005;28;20749;-84
2023/08/17 09:50:59;;;;;;;10.90;8.07;;;;;31.20;97069.00;;;;5014217;28;20201;-84
2023/08/17 09:53:53;;;;;;;8.03;7.23;;;;;31.00;97056.00;;;;5009282;28;20233;-84
2023/08/17 09:56:47;;;;;;;8.47;7.67;;;;;31.20;97062.00;;;;5010339;28;20216;-84
2023/08/17 09:59:36;;;;;;;9.63;8.60;;;;;31.20;97052.00;;;;5013744;28;20223;-84
2023/08/17 10:02:28;;;;;;;8.83;7.97;;;;;31.70;97049.00;;;;5010747;28;20229;-85
2023/08/17 10:05:20;;;;;;;8.77;7.97;;;;;32.00;97054.00;;;;5014678;28;20216;-84
2023/08/17 10:08:12;;;;;;;9.60;7.67;;;;;32.10;97047.00;;;;5010017;28;20224;-84
2023/08/17 10:11:04;;;;;;;8.13;7.32;;;;;32.40;97050.00;;;;5008931;28;20216;-85
2023/08/17 10:13:56;;;;;;;8.23;6.75;;;;;32.60;97061.00;;;;5008983;28;20221;-85
2023/08/17 10:16:46;;;;;;;7.25;6.60;;;;;32.00;97068.00;;;;5007329;28;20248;-85
2023/08/17 10:19:44;;;;;;;8.55;6.47;;;;;31.80;97060.00;;;;5005438;28;20210;-85
2023/08/17 10:22:42;;;;;;;11.88;8.05;;;;;32.20;97037.00;;;;5009110;28;20197;-84
2023/08/17 10:25:32;;;;;;;8.05;7.25;;;;;32.40;97041.00;;;;5008381;28;20200;-85
2023/08/17 10:28:23;;;;;;;10.27;8.18;;;;;32.20;97036.00;;;;5010813;28;20218;-84
2023/08/17 10:31:12;;;;;;;7.28;6.60;;;;;33.10;97039.00;;;;5011548;28;20197;-84
2023/08/17 10:34:02;;;;;;;7.90;7.03;;;;;32.20;97036.00;;;;5019402;28;20245;-84
2023/08/17 10:36:51;;;;;;;7.30;6.68;;;;;32.50;97033.00;;;;5036483;28;20670;-85
2023/08/17 10:39:46;;;;;;;7.15;6.47;;;;;32.00;97027.00;;;;5032806;28;20209;-83
2023/08/17 10:42:36;;;;;;;7.63;6.45;;;;;33.30;97021.00;;;;5021750;28;20464;-84
2023/08/17 10:45:31;;;;;;;7.05;6.55;;;;;33.60;97020.00;;;;5015444;28;20224;-84
2023/08/17 10:48:29;;;;;;;7.05;6.35;;;30.20;99.90;33.10;97023.00;;;;5007394;28;20595;-85
2023/08/17 10:51:25;;;;;;;7.78;5.97;;;30.10;99.90;33.80;97016.00;;;;5014754;28;20206;-84
2023/08/17 10:54:14;;;;;;;6.10;5.50;;;30.30;99.90;34.30;97008.00;;;;5015285;28;20220;-84
2023/08/17 10:57:30;;;;;;;7.65;6.95;;;30.50;99.90;34.30;97018.00;;;;5015784;28;20716;-85
2023/08/17 11:00:26;;;;;;;8.00;6.57;;;30.80;98.40;34.80;97005.00;;;;5009700;28;20605;-84
2023/08/17 11:03:21;;;;;;;6.65;6.05;;;31.00;98.20;35.10;97001.00;;;;5007258;28;20225;-84
2023/08/17 11:06:18;;;;;;;6.00;5.40;;;31.30;98.30;34.40;96996.00;;;;5013550;28;20212;-84
2023/08/17 11:09:09;;;;;;;11.35;6.40;;;31.50;96.50;32.50;96999.00;;;;5007120;28;20201;-84
2023/08/17 11:12:01;;;;;;;7.40;6.65;;;31.20;96.40;33.90;96998.00;;;;5009159;28;20674;-84
2023/08/17 11:14:50;;;;;;;7.22;6.50;;;31.10;96.80;32.90;96989.00;;;;5009925;28;20225;-84
2023/08/17 11:17:39;;;;;;;6.13;5.60;;;30.90;95.20;34.40;96983.00;;;;5009698;28;20208;-84
2023/08/17 11:20:29;;;;;;;9.18;6.18;;;31.00;96.10;34.10;96997.00;;;;5006484;28;20211;-85
2023/08/17 11:23:19;;;;;;;7.15;6.25;;;31.20;95.20;32.00;96985.00;;;;5011963;28;20232;-84
2023/08/17 11:26:13;;;;;;;7.40;6.63;;;30.70;93.80;31.30;96980.00;;;;5007106;28;20222;-85
2023/08/17 11:29:03;;;;;;;6.53;5.40;;;30.10;93.90;31.50;96965.00;;;;5014238;28;20201;-85
2023/08/17 11:31:51;;;;;;;6.93;6.32;;;29.80;94.80;31.80;96971.00;;;;5007693;28;20209;-85
2023/08/17 11:34:42;;;;;;;7.07;6.47;;;29.80;94.50;31.70;96964.00;;;;5009650;28;20220;-86
2023/08/17 11:37:32;;;;;;;6.40;5.72;;;29.70;95.00;33.10;96961.00;;;;5005755;28;20217;-83
2023/08/17 11:40:21;;;;;;;7.47;6.53;;;29.90;96.10;33.80;96965.00;;;;5007903;28;22161;-84
2023/08/17 11:43:10;;;;;;;6.97;5.82;;;30.20;97.00;34.80;96959.00;;;;5006155;28;20232;-84
2023/08/17 11:46:00;;;;;;;6.45;5.88;;;30.70;97.10;35.50;96959.00;;;;5008837;28;20269;-85
2023/08/17 11:48:53;;;;;;;6.68;6.07;;;31.30;96.50;35.70;96970.00;;;;5005462;28;20315;-84
2023/08/17 11:51:42;;;;;;;7.47;6.70;;;31.70;95.00;36.10;96955.00;;;;5009348;28;20202;-85
2023/08/17 11:54:34;;;;;;;6.20;5.60;;;32.20;94.40;34.60;96954.00;;;;5009120;28;20676;-85
2023/08/17 11:57:23;;;;;;;6.30;5.70;;;32.40;92.80;35.70;96947.00;;;;5007942;28;20259;-85
2023/08/17 12:00:19;;;;;;;6.05;5.55;;;32.50;92.70;37.20;96949.00;;;;5007160;28;20206;-85
2023/08/17 12:03:08;;;;;;;6.65;5.97;;;32.80;93.50;37.20;96956.00;;;;5001658;28;20274;-86
2023/08/17 12:05:57;;;;;;;6.85;6.15;;;33.20;92.60;37.40;96960.00;;;;5013524;28;20209;-85
2023/08/17 12:08:48;;;;;;;7.25;5.30;;;33.50;91.80;36.60;96952.00;;;;5011220;28;20819;-86
2023/08/17 12:11:39;;;;;;;6.60;6.07;;;33.90;90.20;34.40;96958.00;;;;5006873;28;20304;-85
2023/08/17 12:14:29;;;;;;;6.18;5.57;;;33.40;89.70;35.60;96947.00;;;;5010811;28;20593;-85
2023/08/17 12:17:19;;;;;;;6.05;5.47;;;33.30;90.40;37.60;96955.00;;;;5008560;28;20413;-85
2023/08/17 12:20:09;;;;;;;6.25;5.15;;;33.50;91.40;38.20;96951.00;;;;5012634;28;20205;-85
2023/08/17 12:22:59;;;;;;;5.35;4.93;;;33.90;91.10;38.30;96991.00;;;;5008275;28;20221;-86
2023/08/17 12:25:54;;;;;;;5.47;5.00;;;34.30;89.60;37.00;96972.00;;;;5010213;28;20584;-86
2023/08/17 12:28:45;;;;;;;5.85;4.53;;;34.20;86.10;37.90;96951.00;;;;5008364;28;20222;-86
2023/08/17 12:31:33;;;;;;;6.20;5.60;;;34.20;87.30;38.10;96942.00;;;;5008325;28;20198;-86
2023/08/17 12:34:22;;;;;;;5.43;4.93;;;34.50;86.80;38.20;96973.00;;;;5012258;28;20225;-86
2023/08/17 12:37:11;;;;;;;7.07;5.35;;;34.70;85.10;34.70;96970.00;;;;5010035;28;20205;-86
2023/08/17 12:40:00;;;;;;;6.10;5.38;;;34.00;82.60;33.40;96981.00;;;;5009554;28;20202;-85
2023/08/17 12:42:49;;;;;;;6.10;5.00;;;32.80;85.20;34.30;96987.00;;;;5012052;28;20198;-85
2023/08/17 12:45:39;;;;;;;5.47;5.03;;;32.30;88.40;32.40;96970.00;;;;5016845;28;20209;-85
2023/08/17 12:48:28;;;;;;;6.10;5.15;;;31.70;86.40;32.70;96958.00;;;;5011611;28;20228;-84
2023/08/17 12:51:17;;;;;;;6.63;5.47;;;31.10;87.70;33.30;96984.00;;;;5015231;28;20424;-85
2023/08/17 12:54:06;;;;;;;6.72;6.10;;;30.90;90.00;31.40;96986.00;;;;5010993;28;20222;-84
2023/08/17 12:56:54;;;;;;;5.50;4.95;;;30.40;90.20;30.90;96988.00;;;;5011711;28;20688;-84
2023/08/17 12:59:45;;;;;;;6.25;5.75;;;29.60;90.50;31.30;96992.00;;;;5010884;28;20602;-84
2023/08/17 13:02:36;;;;;;;5.72;5.22;;;29.30;92.00;31.60;96976.00;;;;5009370;28;20211;-85
2023/08/17 13:05:24;;;;;;;5.10;4.65;;;29.10;92.20;32.20;96969.00;;;;5013856;28;20204;-85
2023/08/17 13:08:13;;;;;;;5.22;4.82;;;29.20;93.00;32.10;96978.00;;;;5009681;28;20224;-84
2023/08/17 13:11:02;;;;;;;10.90;4.95;;;29.20;93.30;32.00;96978.00;;;;5015815;28;20204;-86
2023/08/17 13:13:51;;;;;;;6.15;4.63;;;29.30;93.50;31.90;96976.00;;;;5008055;28;20936;-85
2023/08/17 13:16:40;;;;;;;5.57;4.82;;;29.20;93.60;31.90;96980.00;;;;5009097;28;20205;-84
2023/08/17 13:19:30;;;;;;;8.38;5.22;;;29.20;93.80;31.40;96979.00;;;;5010460;28;20257;-85
2023/08/17 13:22:19;;;;;;;5.75;5.25;;;29.10;94.10;30.70;96976.00;;;;5011087;28;20198;-85
2023/08/17 13:25:08;;;;;;;7.05;5.57;;;28.90;94.30;30.10;96976.00;;;;5006351;28;20227;-84
2023/08/17 13:27:57;;;;;;;6.40;5.20;;;28.50;94.40;29.80;96971.00;;;;5011069;28;20234;-84
2023/08/17 13:30:46;;;;;;;5.55;5.10;;;28.20;94.40;29.80;96973.00;;;;5011806;28;20205;-84
2023/08/17 13:33:35;;;;;;;5.50;5.03;;;27.90;94.80;30.20;96983.00;;;;5007541;28;20623;-84
2023/08/17 13:36:25;;;;;;;6.17;5.30;;;27.80;95.70;31.20;96979.00;;;;5015121;28;22108;-84
2023/08/17 13:39:14;;;;;;;6.60;4.70;;;28.00;96.00;30.90;96962.00;;;;5012638;28;20497;-85